DTMB/MIR METAR and TAF weather

Enter ICAO airport designator
Station Type Date Time Source
DTMB METAR 2021/05/14 04:30 UTC NOAA

DTMB 140430Z 17003KT CAVOK 17/14 Q1014


Station Type Date Time Source
DTMB Decoded METAR 2021/05/14 04:30 UTC NOAA

Habib Bourguiba , Tunisia (DTMB) 35-46N 010-45E
May 14, 2021 - 12:30 AM EDT / 2021.05.14 0430 UTC
Wind: from the S (170 degrees) at 3 MPH (3 KT):0
Visibility: greater than 7 mile(s):0
Temperature: 62 F (17 C)
Dew Point: 57 F (14 C)
Relative Humidity: 82%
Pressure (altimeter): 29.94 in. Hg (1014 hPa)
ob: DTMB 140430Z 17003KT CAVOK 17/14 Q1014
cycle: 4

Station Type Date Time Source
DTMB TAF 2021/05/13 18:30 UTC NOAA

TAF TAF DTMB 131700Z 1318/1418 11017KT CAVOK
BECMG 1322/1324 10005KT
BECMG 1404/1406 16010KT
BECMG 1412/1414 11017KT

Example: see airport list